Time;durP1;ratioP1;P1;durP2;ratioP2;P2;SDS_P1;SDS_P2;PMS_P1;PMS_P2;Temp;Humidity;BMP_temperature;BMP_pressure;BME280_temperature;BME280_humidity;BME280_pressure;Samples;Min_cycle;Max_cycle;Signal;HPM_P1;HPM_P2
2022/08/10 00:01:42;;;;;;;7.47;3.72;;;;;;;;;;4403088;32;20342;-84
2022/08/10 00:04:07;;;;;;;6.55;4.05;;;;;;;;;;4402112;32;20218;-86
2022/08/10 00:06:33;;;;;;;12.68;4.15;;;;;;;;;;4401226;32;20264;-86
2022/08/10 00:08:58;;;;;;;4.03;3.03;;;;;;;;;;4407776;32;20344;-86
2022/08/10 00:11:24;;;;;;;5.68;3.42;;;;;;;;;;4408722;32;20210;-82
2022/08/10 00:13:52;;;;;;;9.60;3.70;;;;;;;;;;4409118;32;20241;-84
2022/08/10 00:16:20;;;;;;;6.68;3.40;;;;;;;;;;4408465;32;20260;-86
2022/08/10 00:18:46;;;;;;;8.18;3.85;;;;;;;;;;4411465;32;20592;-84
2022/08/10 00:21:11;;;;;;;6.57;3.75;;;;;;;;;;4404599;32;20703;-85
2022/08/10 00:23:37;;;;;;;4.15;2.95;;;;;;;;;;4401871;32;20229;-83
2022/08/10 00:26:05;;;;;;;5.95;4.03;;;;;;;;;;4402398;32;20550;-84
2022/08/10 00:28:33;;;;;;;5.70;3.50;;;;;;;;;;4402407;32;20225;-86
2022/08/10 00:30:59;;;;;;;6.35;4.00;;;;;;;;;;4402764;32;20237;-86
2022/08/10 00:33:26;;;;;;;6.80;4.40;;;;;;;;;;4402792;32;20291;-84
2022/08/10 00:35:53;;;;;;;5.10;3.62;;;;;;;;;;4402742;32;20403;-84
2022/08/10 00:38:18;;;;;;;6.90;3.37;;;;;;;;;;4401260;32;20279;-84
2022/08/10 00:40:45;;;;;;;8.82;3.50;;;;;;;;;;4403005;32;20335;-84
2022/08/10 00:43:10;;;;;;;6.20;4.05;;;;;;;;;;4403379;32;20228;-84
2022/08/10 00:45:38;;;;;;;5.05;4.10;;;;;;;;;;4402771;32;20321;-84
2022/08/10 00:48:06;;;;;;;8.07;3.55;;;;;;;;;;4403298;32;20220;-84
2022/08/10 00:50:32;;;;;;;5.95;3.62;;;;;;;;;;4402325;32;20300;-84
2022/08/10 00:52:58;;;;;;;4.78;3.50;;;;;;;;;;4389481;32;20607;-84
2022/08/10 00:55:23;;;;;;;4.28;3.70;;;;;;;;;;4386451;32;20712;-84
2022/08/10 00:57:49;;;;;;;4.05;3.30;;;;;;;;;;4387878;32;20354;-84
2022/08/10 01:00:14;;;;;;;4.50;3.55;;;;;;;;;;4402907;32;20217;-85
2022/08/10 01:02:40;;;;;;;6.78;3.87;;;;;;;;;;4402003;32;20365;-84
2022/08/10 01:05:13;;;;;;;6.60;4.37;;;;;;;;;;4402558;32;20708;-84
2022/08/10 01:08:06;;;;;;;8.63;4.20;;;;;;;;;;4401359;32;20247;-80
2022/08/10 01:10:53;;;;;;;6.15;3.72;;;;;;;;;;4401693;32;20245;-87
2022/08/10 01:13:40;;;;;;;6.53;3.47;;;;;;;;;;4402024;32;20217;-85
2022/08/10 01:16:19;;;;;;;3.90;3.50;;;;;;;;;;4401906;32;20271;-84
2022/08/10 01:18:59;;;;;;;4.28;3.28;;;;;;;;;;4402245;32;20217;-83
2022/08/10 01:21:59;;;;;;;5.10;3.70;;;;;;;;;;4401438;32;20229;-84
2022/08/10 01:24:30;;;;;;;9.05;4.68;;;;;;;;;;4401998;32;20197;-86
2022/08/10 01:27:12;;;;;;;9.23;3.85;;;;;;;;;;4401723;32;20303;-81
2022/08/10 01:29:55;;;;;;;4.62;3.85;;;;;;;;;;4401716;32;20202;-85
2022/08/10 01:32:48;;;;;;;5.75;3.62;;;;;;;;;;4402216;32;20244;-85
2022/08/10 01:35:21;;;;;;;13.35;3.45;;;;;;;;;;4401679;32;20703;-85
2022/08/10 01:37:57;;;;;;;11.88;3.58;;;;;;;;;;4401213;32;20237;-85
2022/08/10 01:40:26;;;;;;;6.72;4.22;;;;;;;;;;4401429;32;20312;-81
2022/08/10 01:42:55;;;;;;;6.40;3.58;;;;;;;;;;4401756;32;20225;-81
2022/08/10 01:45:23;;;;;;;9.07;4.00;;;;;;;;;;4400288;32;20229;-81
2022/08/10 01:50:59;;;;;;;6.70;3.87;;;;;;;;;;4401147;32;20275;-81
2022/08/10 01:53:39;;;;;;;5.25;3.42;;;;;;;;;;4385759;32;20239;-81
2022/08/10 01:56:06;;;;;;;10.70;3.97;;;;;;;;;;4385816;32;20237;-83
2022/08/10 01:58:35;;;;;;;6.43;3.45;;;;;;;;;;4390342;32;20769;-81
2022/08/10 02:01:01;;;;;;;6.32;4.00;;;;;;;;;;4400785;32;20634;-81
2022/08/10 02:03:28;;;;;;;4.53;3.58;;;;;;;;;;4401756;32;20225;-85
2022/08/10 02:05:55;;;;;;;7.35;3.83;;;;;;;;;;4401128;32;20279;-82
2022/08/10 02:08:23;;;;;;;6.50;3.72;;;;;;;;;;4400697;32;20228;-81
2022/08/10 02:10:51;;;;;;;5.93;3.83;;;;;;;;;;4400548;32;20653;-80
2022/08/10 02:13:18;;;;;;;6.72;3.78;;;;;;;;;;4400745;32;20822;-81
2022/08/10 02:15:47;;;;;;;5.55;3.50;;;;;;;;;;4400799;32;20546;-85
2022/08/10 02:18:17;;;;;;;7.37;3.67;;;;;;;;;;4401567;32;20343;-85
2022/08/10 02:20:48;;;;;;;10.30;4.53;;;;;;;;;;4400161;32;20365;-85
2022/08/10 02:23:30;;;;;;;7.90;3.90;;;;;;;;;;4401044;32;20308;-85
2022/08/10 02:25:59;;;;;;;4.35;3.95;;;;;;;;;;4401228;32;20201;-86
2022/08/10 02:28:26;;;;;;;10.82;5.70;;;;;;;;;;4407046;32;20182;-84
2022/08/10 02:30:53;;;;;;;5.95;4.18;;;;;;;;;;4411346;32;20872;-80
2022/08/10 02:33:22;;;;;;;4.78;4.10;;;;;;;;;;4405964;32;20326;-81
2022/08/10 02:35:50;;;;;;;8.77;4.57;;;;;;;;;;4402837;32;20225;-82
2022/08/10 02:38:20;;;;;;;5.93;3.65;;;;;;;;;;4401196;32;20414;-86
2022/08/10 02:40:50;;;;;;;6.18;3.92;;;;;;;;;;4401707;32;20269;-82
2022/08/10 02:43:33;;;;;;;9.95;5.03;;;;;;;;;;4400749;32;20376;-83
2022/08/10 02:46:07;;;;;;;5.60;4.00;;;;;;;;;;4401411;32;20197;-84
2022/08/10 02:48:42;;;;;;;8.05;5.53;;;;;;;;;;4401008;32;20292;-85
2022/08/10 02:51:41;;;;;;;8.27;4.95;;;;;;;;;;4399684;32;20257;-83
2022/08/10 02:54:14;;;;;;;8.95;4.20;;;;;;;;;;4385373;32;20307;-87
2022/08/10 02:57:12;;;;;;;6.57;3.47;;;;;;;;;;4385850;32;20281;-85
2022/08/10 02:59:42;;;;;;;5.68;3.80;;;;;;;;;;4397130;32;20310;-86
2022/08/10 03:02:11;;;;;;;10.02;4.60;;;;;;;;;;4400613;32;20660;-85
2022/08/10 03:05:00;;;;;;;6.78;4.50;;;;;;;;;;4400290;32;20247;-80
2022/08/10 03:07:35;;;;;;;5.07;3.78;;;;;;;;;;4399980;32;20214;-85
2022/08/10 03:10:02;;;;;;;4.12;3.42;;;;;;;;;;4400116;32;20320;-85
2022/08/10 03:12:30;;;;;;;9.55;4.50;;;;;;;;;;4400357;32;20982;-83
2022/08/10 03:14:56;;;;;;;6.70;4.57;;;;;;;;;;4392144;32;20346;-82
2022/08/10 03:17:22;;;;;;;5.20;3.58;;;;;;;;;;4385330;32;20202;-82
2022/08/10 03:19:50;;;;;;;9.30;4.53;;;;;;;;;;4385157;32;20330;-82
2022/08/10 03:22:17;;;;;;;4.00;3.60;;;;;;;;;;4397635;32;20210;-82
2022/08/10 03:24:43;;;;;;;7.30;4.78;;;;;;;;;;4399930;32;20315;-81
2022/08/10 03:27:09;;;;;;;5.15;4.10;;;;;;;;;;4400046;32;20277;-86
2022/08/10 03:29:36;;;;;;;8.43;4.28;;;;;;;;;;4400056;32;20317;-84
2022/08/10 03:32:04;;;;;;;6.40;5.32;;;;;;;;;;4400168;32;20324;-85
2022/08/10 03:34:31;;;;;;;4.93;4.00;;;;;;;;;;4399806;32;20225;-85
2022/08/10 03:36:57;;;;;;;6.40;3.95;;;;;;;;;;4399817;32;20206;-84
2022/08/10 03:39:23;;;;;;;10.98;4.45;;;;;;;;;;4400292;32;20251;-86
2022/08/10 03:41:54;;;;;;;5.55;4.07;;;;;;;;;;4402991;32;20214;-86
2022/08/10 03:44:28;;;;;;;11.95;4.53;;;;;;;;;;4402782;32;20221;-83
2022/08/10 03:46:58;;;;;;;11.50;4.82;;;;;;;;;;4403034;32;20221;-84
2022/08/10 03:49:25;;;;;;;8.73;4.18;;;;;;;;;;4402868;32;20308;-85
2022/08/10 03:51:50;;;;;;;7.78;4.95;;;;;;;;;;4397141;32;20594;-83
2022/08/10 03:54:17;;;;;;;18.67;4.95;;;;;;;;;;4387549;32;20206;-85
2022/08/10 03:56:44;;;;;;;8.40;4.82;;;;;;;;;;4386809;32;20809;-86
2022/08/10 03:59:12;;;;;;;11.57;5.37;;;;;;;;;;4396388;32;20221;-83
2022/08/10 04:01:40;;;;;;;9.18;4.95;;;;;;;;;;4402804;32;20262;-83
2022/08/10 04:04:06;;;;;;;9.07;5.10;;;;;;;;;;4402479;32;20206;-84
2022/08/10 04:06:31;;;;;;;15.93;5.72;;;;;;;;;;4402368;32;20228;-84
2022/08/10 04:08:57;;;;;;;10.73;5.45;;;;;;;;;;4400939;32;20279;-85
2022/08/10 04:11:25;;;;;;;9.90;5.12;;;;;;;;;;4402038;32;20810;-84
2022/08/10 04:13:51;;;;;;;9.65;5.70;;;;;;;;;;4402048;32;20318;-84
2022/08/10 04:16:16;;;;;;;15.02;6.15;;;;;;;;;;4402525;32;20717;-83
2022/08/10 04:18:42;;;;;;;7.32;5.15;;;;;;;;;;4402630;32;20303;-84
2022/08/10 04:21:14;;;;;;;8.20;4.97;;;;;;;;;;4401840;32;20298;-84
2022/08/10 04:23:43;;;;;;;8.50;5.40;;;;;;;;;;4401932;32;20240;-84
2022/08/10 04:26:10;;;;;;;10.35;5.22;;;;;;;;;;4401888;32;20226;-84
2022/08/10 04:28:36;;;;;;;14.63;6.57;;;;;;;;;;4401987;32;20508;-83
2022/08/10 04:31:03;;;;;;;7.87;5.25;;;;;;;;;;4401762;32;20327;-85
2022/08/10 04:33:32;;;;;;;11.00;5.40;;;;;;;;;;4402359;32;20231;-83
2022/08/10 04:36:01;;;;;;;9.88;6.40;;;;;;;;;;4401759;32;20317;-83
2022/08/10 04:38:30;;;;;;;9.07;5.53;;;;;;;;;;4401955;32;20255;-84
2022/08/10 04:40:57;;;;;;;15.15;5.70;;;;;;;;;;4401607;32;20246;-84
2022/08/10 04:43:22;;;;;;;13.35;5.07;;;;;;;;;;4401836;32;20336;-86
2022/08/10 04:45:51;;;;;;;8.88;5.32;;;;;;;;;;4401996;32;20226;-84
2022/08/10 04:48:23;;;;;;;5.65;5.15;;;;;;;;;;4402750;32;20739;-85
2022/08/10 04:50:48;;;;;;;7.45;5.05;;;;;;;;;;4401364;32;20230;-84
2022/08/10 04:53:14;;;;;;;16.42;5.55;;;;;;;;;;4401434;32;20566;-83
2022/08/10 04:55:39;;;;;;;6.80;5.45;;;;;;;;;;4401403;32;20248;-82
2022/08/10 04:58:05;;;;;;;8.80;5.72;;;;;;;;;;4401593;32;20519;-84
2022/08/10 05:00:30;;;;;;;6.90;5.30;;;;;;;;;;4401110;32;20562;-83
2022/08/10 05:02:56;;;;;;;10.50;5.20;;;;;;;;;;4401720;32;20643;-83
2022/08/10 05:05:21;;;;;;;9.18;4.95;;;;;;;;;;4401529;32;20275;-84
2022/08/10 05:07:47;;;;;;;8.32;5.07;;;;;;;;;;4401836;32;20748;-83
2022/08/10 05:10:12;;;;;;;9.55;5.12;;;;;;;;;;4401114;32;20260;-83
2022/08/10 05:12:38;;;;;;;5.53;4.53;;;;;;;;;;4401118;32;20282;-81
2022/08/10 05:15:12;;;;;;;6.82;4.75;;;;;;;;;;4400685;32;20226;-82
2022/08/10 05:17:40;;;;;;;5.47;4.87;;;;;;;;;;4401700;32;20504;-81
2022/08/10 05:20:09;;;;;;;10.48;5.85;;;;;;;;;;4398987;32;20237;-81
2022/08/10 05:22:39;;;;;;;17.65;5.28;;;;;;;;;;4398682;32;20236;-80
2022/08/10 05:25:08;;;;;;;12.20;4.75;;;;;;;;;;4398736;32;20650;-85
2022/08/10 05:27:33;;;;;;;8.55;5.15;;;;;;;;;;4398805;32;20206;-79
2022/08/10 05:30:00;;;;;;;11.80;5.05;;;;;;;;;;4398982;32;20260;-83
2022/08/10 05:32:31;;;;;;;12.75;5.78;;;;;;;;;;4401049;32;20393;-81
2022/08/10 05:34:57;;;;;;;6.90;4.55;;;;;;;;;;4400981;32;20222;-79
2022/08/10 05:37:24;;;;;;;13.98;4.87;;;;;;;;;;4400270;32;20213;-81
2022/08/10 05:39:50;;;;;;;7.55;4.93;;;;;;;;;;4400727;32;20295;-80
2022/08/10 05:42:16;;;;;;;7.10;5.05;;;;;;;;;;4400601;32;20227;-82
2022/08/10 05:44:43;;;;;;;9.65;5.43;;;;;;;;;;4400656;32;20427;-79
2022/08/10 05:47:09;;;;;;;8.18;5.03;;;;;;;;;;4400888;32;20275;-81
2022/08/10 05:49:35;;;;;;;9.20;4.37;;;;;;;;;;4399338;32;20237;-81
2022/08/10 05:52:01;;;;;;;5.28;4.18;;;;;;;;;;4400161;32;20252;-80
2022/08/10 05:54:27;;;;;;;8.38;4.87;;;;;;;;;;4400288;32;20328;-81
2022/08/10 05:56:53;;;;;;;7.12;5.40;;;;;;;;;;4400202;32;20724;-80
2022/08/10 05:59:19;;;;;;;6.97;4.85;;;;;;;;;;4399024;32;20418;-79
2022/08/10 06:01:48;;;;;;;14.65;5.40;;;;;;;;;;4399245;32;20253;-80
2022/08/10 06:04:25;;;;;;;6.82;5.15;;;;;;;;;;4399066;32;20206;-80
2022/08/10 06:06:54;;;;;;;9.55;4.53;;;;;;;;;;4400332;32;20248;-80
2022/08/10 06:09:21;;;;;;;9.20;4.90;;;;;;;;;;4399391;32;20202;-81
2022/08/10 06:11:48;;;;;;;5.87;4.62;;;;;;;;;;4400303;32;20244;-81
2022/08/10 06:17:03;;;;;;;9.18;4.45;;;;;;;;;;4400617;32;20339;-80
2022/08/10 06:19:30;;;;;;;7.20;4.80;;;;;;;;;;4400102;32;20364;-80
2022/08/10 06:22:00;;;;;;;5.70;4.30;;;;;;;;;;4398744;32;20259;-80
2022/08/10 06:24:28;;;;;;;10.38;5.28;;;;;;;;;;4400124;32;20629;-80
2022/08/10 06:26:54;;;;;;;13.05;5.82;;;;;;;;;;4399829;32;20221;-80
2022/08/10 06:29:21;;;;;;;7.55;5.00;;;;;;;;;;4400334;32;20224;-79
2022/08/10 06:31:50;;;;;;;15.80;5.90;;;;;;;;;;4400260;32;20756;-80
2022/08/10 06:34:47;;;;;;;11.93;4.85;;;;;;;;;;4400037;32;20220;-80
2022/08/10 06:37:16;;;;;;;7.47;4.07;;;;;;;;;;4400057;32;20368;-82
2022/08/10 06:39:43;;;;;;;14.00;5.05;;;;;;;;;;4400019;32;20277;-81
2022/08/10 06:42:21;;;;;;;7.03;4.47;;;;;;;;;;4400055;32;20322;-80
2022/08/10 06:44:57;;;;;;;8.13;4.10;;;;;;;;;;4400119;32;20223;-79
2022/08/10 06:47:29;;;;;;;10.40;4.85;;;;;;;;;;4398959;32;20432;-79
2022/08/10 06:49:59;;;;;;;6.47;4.72;;;;;;;;;;4399781;32;20695;-81
2022/08/10 06:52:27;;;;;;;10.93;4.45;;;;;;;;;;4397166;32;20225;-79
2022/08/10 06:54:56;;;;;;;5.28;3.83;;;;;;;;;;4400207;32;20280;-79
2022/08/10 06:57:25;;;;;;;6.30;3.67;;;;;;;;;;4400366;32;20222;-80
2022/08/10 06:59:52;;;;;;;9.68;4.30;;;;;;;;;;4399825;32;20210;-83
2022/08/10 07:02:28;;;;;;;6.78;4.35;;;;;;;;;;4400134;32;20233;-82
2022/08/10 07:05:01;;;;;;;6.47;4.28;;;;;;;;;;4400084;32;20189;-83
2022/08/10 07:07:31;;;;;;;12.70;4.55;;;;;;;;;;4398924;32;20337;-82
2022/08/10 07:09:59;;;;;;;9.18;4.03;;;;;;;;;;4386853;32;20278;-85
2022/08/10 07:12:27;;;;;;;4.82;3.80;;;;;;;;;;4398555;32;20329;-84
2022/08/10 07:14:55;;;;;;;7.97;3.95;;;;;;;;;;4401982;32;20309;-85
2022/08/10 07:17:24;;;;;;;5.10;4.30;;;;;;;;;;4401822;32;20236;-84
2022/08/10 07:19:54;;;;;;;7.68;3.87;;;;;;;;;;4401221;32;20283;-85
2022/08/10 07:22:25;;;;;;;9.45;4.05;;;;;;;;;;4402858;32;20340;-86
2022/08/10 07:24:53;;;;;;;6.28;4.12;;;;;;;;;;4402745;32;20253;-86
2022/08/10 07:27:20;;;;;;;4.85;4.00;;;;;;;;;;4403327;32;20705;-83
2022/08/10 07:29:46;;;;;;;8.50;3.55;;;;;;;;;;4403119;32;20675;-87
2022/08/10 07:32:13;;;;;;;5.97;4.03;;;;;;;;;;4403302;32;20251;-87
2022/08/10 07:34:39;;;;;;;7.87;4.15;;;;;;;;;;4402818;32;20394;-86
2022/08/10 07:37:07;;;;;;;7.70;4.00;;;;;;;;;;4402698;32;20256;-86
2022/08/10 07:39:40;;;;;;;5.62;4.60;;;;;;;;;;4405605;32;20308;-87
2022/08/10 07:42:08;;;;;;;5.32;3.20;;;;;;;;;;4403012;32;20254;-85
2022/08/10 07:44:35;;;;;;;5.18;4.05;;;;;;;;;;4402604;32;20333;-87
2022/08/10 07:47:04;;;;;;;6.12;4.43;;;;;;;;;;4403508;32;20268;-84
2022/08/10 07:49:34;;;;;;;4.80;3.37;;;;;;;;;;4402218;32;20378;-85
2022/08/10 07:52:05;;;;;;;7.35;4.10;;;;;;;;;;4402454;32;20249;-84
2022/08/10 07:54:35;;;;;;;4.22;3.75;;;;;;;;;;4402116;32;20241;-83
2022/08/10 07:57:04;;;;;;;6.57;3.92;;;;;;;;;;4402178;32;20256;-85
2022/08/10 07:59:40;;;;;;;6.72;3.97;;;;;;;;;;4402166;32;20713;-85
2022/08/10 08:02:12;;;;;;;7.80;4.10;;;;;;;;;;4402531;32;20297;-85
2022/08/10 08:04:38;;;;;;;7.55;3.40;;;;;;;;;;4402385;32;20289;-84
2022/08/10 08:07:07;;;;;;;4.05;3.40;;;;;;;;;;4402262;32;20240;-86
2022/08/10 08:09:35;;;;;;;4.32;3.58;;;;;;;;;;4402350;32;20343;-86
2022/08/10 08:12:02;;;;;;;12.18;4.00;;;;;;;;;;4401264;32;20847;-86
2022/08/10 08:14:29;;;;;;;5.80;3.83;;;;;;;;;;4402126;32;20225;-87
2022/08/10 08:16:56;;;;;;;4.97;4.10;;;;;;;;;;4402955;32;20240;-88
2022/08/10 08:19:23;;;;;;;5.72;3.80;;;;;;;;;;4402404;32;20352;-86
2022/08/10 08:21:51;;;;;;;4.57;3.97;;;;;;;;;;4402861;32;20217;-86
2022/08/10 08:24:19;;;;;;;10.90;3.90;;;;;;;;;;4402347;32;20602;-86
2022/08/10 08:26:46;;;;;;;6.53;4.18;;;;;;;;;;4402022;32;20256;-86
2022/08/10 08:29:12;;;;;;;5.55;3.70;;;;;;;;;;4402400;32;20249;-86
2022/08/10 08:31:39;;;;;;;7.87;3.97;;;;;;;;;;4402450;32;20205;-85
2022/08/10 08:34:05;;;;;;;7.00;4.05;;;;;;;;;;4402531;32;20222;-84
2022/08/10 08:36:35;;;;;;;6.40;3.67;;;;;;;;;;4402244;32;20298;-84
2022/08/10 08:39:01;;;;;;;8.02;3.35;;;;;;;;;;4402429;32;20256;-91
2022/08/10 08:41:39;;;;;;;6.20;3.75;;;;;;;;;;4401929;32;20752;-87
2022/08/10 08:44:07;;;;;;;8.80;5.70;;;;;;;;;;4401930;32;20292;-88
2022/08/10 08:46:39;;;;;;;7.32;4.45;;;;;;;;;;4402320;32;20309;-83
2022/08/10 08:49:42;;;;;;;7.78;4.18;;;;;;;;;;4401740;32;20229;-83
2022/08/10 08:52:13;;;;;;;6.37;3.78;;;;;;;;;;4401261;32;20382;-83
2022/08/10 08:55:11;;;;;;;5.60;3.92;;;;;;;;;;4401619;32;20209;-83
2022/08/10 08:58:10;;;;;;;5.68;3.80;;;;;;;;;;4401640;32;20202;-83
2022/08/10 09:01:14;;;;;;;7.82;3.83;;;;;;;;;;4386453;32;20358;-85
2022/08/10 09:03:53;;;;;;;7.15;4.15;;;;;;;;;;4386767;32;20273;-89
2022/08/10 09:06:28;;;;;;;4.15;3.40;;;;;;;;;;4386330;32;20301;-83
2022/08/10 09:09:15;;;;;;;7.30;3.90;;;;;;;;;;4386478;32;20232;-82
2022/08/10 09:11:59;;;;;;;4.75;3.40;;;;;;;;;;4386410;32;20327;-83
2022/08/10 09:14:43;;;;;;;8.70;3.65;;;;;;;;;;4390976;32;20217;-83
2022/08/10 09:17:19;;;;;;;5.65;3.72;;;;;;;;;;4401513;32;20225;-84
2022/08/10 09:19:54;;;;;;;7.30;4.47;;;;;;;;;;4400938;32;20233;-83
2022/08/10 09:22:41;;;;;;;9.00;3.80;;;;;;;;;;4400598;32;20645;-80
2022/08/10 09:25:17;;;;;;;5.62;3.92;;;;;;;;;;4402492;32;20197;-84
2022/08/10 09:27:45;;;;;;;11.63;4.05;;;;;;;;;;4402921;32;20296;-87
2022/08/10 09:30:17;;;;;;;5.37;4.85;;;;;;;;;;4409159;32;20214;-85
2022/08/10 09:32:52;;;;;;;11.93;4.30;;;;;;;;;;4408646;32;20320;-85
2022/08/10 09:35:26;;;;;;;5.65;3.60;;;;;;;;;;4401134;32;20897;-85
2022/08/10 09:38:20;;;;;;;17.05;4.90;;;;;;;;;;4400900;32;20586;-88
2022/08/10 09:41:03;;;;;;;9.57;4.40;;;;;;;;;;4401444;32;20213;-85
2022/08/10 09:43:37;;;;;;;6.57;4.10;;;;;;;;;;4401298;32;20276;-88
2022/08/10 09:46:19;;;;;;;6.18;4.78;;;;;;;;;;4401025;32;20358;-84
2022/08/10 09:48:50;;;;;;;5.25;4.20;;;;;;;;;;4399562;32;20314;-83
2022/08/10 09:51:30;;;;;;;6.87;4.22;;;;;;;;;;4396415;32;20230;-82
2022/08/10 09:54:33;;;;;;;10.95;5.07;;;;;;;;;;4383810;32;20264;-83
2022/08/10 09:57:30;;;;;;;4.87;4.37;;;;;;;;;;4383134;32;20320;-82
2022/08/10 10:00:12;;;;;;;20.08;5.62;;;;;;;;;;4397993;32;20231;-82
2022/08/10 10:02:59;;;;;;;8.90;5.12;;;;;;;;;;4400655;32;20228;-82
2022/08/10 10:05:52;;;;;;;5.93;4.90;;;;;;;;;;4400456;32;20217;-83
2022/08/10 10:08:20;;;;;;;7.45;5.32;;;;;;;;;;4400520;32;20610;-84
2022/08/10 10:11:03;;;;;;;6.25;5.03;;;;;;;;;;4400534;32;20213;-82
2022/08/10 10:13:54;;;;;;;8.45;5.47;;;;;;;;;;4400933;32;20666;-83
2022/08/10 10:16:39;;;;;;;5.62;4.80;;;;;;;;;;4385777;32;20279;-82
2022/08/10 10:19:30;;;;;;;5.55;4.55;;;;;;;;;;4387681;32;20333;-85
2022/08/10 10:22:20;;;;;;;6.97;3.87;;;;;;;;;;4401727;32;20350;-84
2022/08/10 10:25:05;;;;;;;8.30;4.62;;;;;;;;;;4400902;32;20218;-83
2022/08/10 10:27:48;;;;;;;10.23;5.15;;;;;;;;;;4401091;32;20229;-89
2022/08/10 10:30:16;;;;;;;8.63;4.60;;;;;;;;;;4405624;32;20306;-83
2022/08/10 10:32:52;;;;;;;8.10;4.43;;;;;;;;;;4415236;32;20281;-87
2022/08/10 10:35:47;;;;;;;4.15;3.67;;;;;;;;;;4408797;32;20290;-86
2022/08/10 10:38:15;;;;;;;7.78;5.85;;;;;;;;;;4401688;32;20339;-79
2022/08/10 10:40:47;;;;;;;12.13;6.35;;;;;;;;;;4402503;32;20638;-83
2022/08/10 10:43:40;;;;;;;10.88;6.03;;;;;;;;;;4408807;32;20316;-86
2022/08/10 10:46:24;;;;;;;10.88;7.85;;;;;;;;;;4408851;32;20312;-82
2022/08/10 10:49:38;;;;;;;11.35;7.00;;;;;;;;;;4405498;32;20249;-81
2022/08/10 10:52:17;;;;;;;10.30;7.05;;;;;;;;;;4356934;32;20638;-80
2022/08/10 10:55:01;;;;;;;9.60;6.07;;;;;;;;;;4403704;32;20280;-90
2022/08/10 10:57:58;;;;;;;8.25;5.20;;;;;;;;;;4404113;32;20316;-79
2022/08/10 11:00:31;;;;;;;13.55;5.87;;;;;;;;;;4403736;32;20353;-79
2022/08/10 11:03:34;;;;;;;8.15;5.57;;;;;;;;;;4404151;32;20627;-85
2022/08/10 11:06:19;;;;;;;10.98;6.12;;;;;;;;;;4371561;32;20230;-81
2022/08/10 11:08:58;;;;;;;12.25;5.68;;;;;;;;;;4403799;32;20320;-86
2022/08/10 11:11:33;;;;;;;7.62;4.90;;;;;;;;;;4403573;32;20686;-80
2022/08/10 11:14:08;;;;;;;7.32;4.62;;;;;;;;;;4402336;32;20255;-84
2022/08/10 11:17:09;;;;;;;8.60;4.87;;;;;;;;;;4403180;32;20300;-84
2022/08/10 11:19:58;;;;;;;10.00;4.68;;;;;;;;;;4392854;32;20321;-84
2022/08/10 11:22:42;;;;;;;9.27;4.20;;;;;;;;;;4401751;32;20249;-84
2022/08/10 11:25:29;;;;;;;7.50;4.65;;;;;;;;;;4403329;32;20273;-86
2022/08/10 11:28:00;;;;;;;7.05;4.12;;;;;;;;;;4402812;32;20309;-85
2022/08/10 11:30:35;;;;;;;9.02;4.40;;;;;;;;;;4402234;32;20654;-84
2022/08/10 11:33:32;;;;;;;6.90;4.47;;;;;;;;;;4403272;32;20725;-85
2022/08/10 11:36:07;;;;;;;7.85;4.45;;;;;;;;;;4403483;32;20232;-85
2022/08/10 11:38:52;;;;;;;7.45;4.32;;;;;;;;;;4403173;32;20656;-85
2022/08/10 11:41:42;;;;;;;10.82;5.20;;;;;;;;;;4402854;32;20344;-86
2022/08/10 11:44:28;;;;;;;12.37;5.28;;;;;;;;;;4403691;32;20214;-86
2022/08/10 11:47:18;;;;;;;7.10;5.07;;;;;;;;;;4403369;32;20222;-84
2022/08/10 11:49:58;;;;;;;9.13;5.28;;;;;;;;;;4402351;32;20314;-84
2022/08/10 11:52:59;;;;;;;7.50;5.35;;;;;;;;;;4402351;32;20241;-84
2022/08/10 11:55:29;;;;;;;5.78;5.00;;;;;;;;;;4389701;32;20252;-84
2022/08/10 11:57:58;;;;;;;8.07;5.82;;;;;;;;;;4402543;32;20274;-83
2022/08/10 12:00:29;;;;;;;7.25;4.82;;;;;;;;;;4402068;32;20555;-83
2022/08/10 12:02:58;;;;;;;6.20;5.35;;;;;;;;;;4402520;32;20257;-84
2022/08/10 12:05:36;;;;;;;7.80;4.97;;;;;;;;;;4402269;32;20853;-84
2022/08/10 12:08:02;;;;;;;11.12;5.35;;;;;;;;;;4402449;32;20232;-84
2022/08/10 12:10:29;;;;;;;13.98;5.72;;;;;;;;;;4402603;32;20287;-85
2022/08/10 12:13:05;;;;;;;8.05;6.37;;;;;;;;;;4401836;32;20275;-85
2022/08/10 12:15:59;;;;;;;10.52;8.95;;;;;;;;;;4401578;32;20217;-85
2022/08/10 12:18:46;;;;;;;14.65;7.50;;;;;;;;;;4402333;32;20205;-86
2022/08/10 12:21:21;;;;;;;9.57;6.47;;;;;;;;;;4402453;32;20689;-84
2022/08/10 12:23:55;;;;;;;14.45;7.68;;;;;;;;;;4401342;32;20539;-89
2022/08/10 12:26:35;;;;;;;11.12;6.05;;;;;;;;;;4400906;32;20240;-89
2022/08/10 12:29:18;;;;;;;8.02;6.10;;;;;;;;;;4400415;32;20350;-85
2022/08/10 12:31:46;;;;;;;7.32;6.18;;;;;;;;;;4401100;32;20237;-86
2022/08/10 12:34:27;;;;;;;11.40;6.18;;;;;;;;;;4402043;32;20266;-88
2022/08/10 12:37:44;;;;;;;20.83;8.38;;;;;;;;;;4398732;32;20790;-84
2022/08/10 12:40:25;;;;;;;35.85;9.85;;;;;;;;;;4332025;33;20230;-84
2022/08/10 12:43:09;;;;;;;15.52;8.50;;;;;;;;;;4393666;32;20298;-82
2022/08/10 12:45:52;;;;;;;11.00;6.97;;;;;;;;;;4394363;32;20233;-83
2022/08/10 12:48:32;;;;;;;14.52;7.22;;;;;;;;;;4394997;32;20225;-83
2022/08/10 12:50:59;;;;;;;10.65;6.43;;;;;;;;;;4394946;32;20712;-82
2022/08/10 12:53:39;;;;;;;13.40;7.10;;;;;;;;;;4403252;32;20233;-82
2022/08/10 12:56:05;;;;;;;21.52;8.70;;;;;;;;;;4400974;32;20252;-83
2022/08/10 12:58:33;;;;;;;19.37;9.50;;;;;;;;;;4402726;32;20225;-81
2022/08/10 13:01:04;;;;;;;22.15;9.27;;;;;;;;;;4402514;32;20233;-81
2022/08/10 13:03:32;;;;;;;12.48;8.50;;;;;;;;;;4402653;32;20259;-81
2022/08/10 13:06:03;;;;;;;13.32;8.80;;;;;;;;;;4402902;32;20246;-81
2022/08/10 13:11:21;;;;;;;17.52;8.93;;;;;;;;;;4401936;32;20734;-81
2022/08/10 13:13:48;;;;;;;12.85;8.25;;;;;;;;;;4400958;32;20328;-82
2022/08/10 13:16:15;;;;;;;20.92;8.80;;;;;;;;;;4401719;32;20264;-82
2022/08/10 13:18:44;;;;;;;17.23;10.32;;;;;;;;;;4400229;32;20749;-82
2022/08/10 13:21:11;;;;;;;19.90;9.30;;;;;;;;;;4400052;32;20303;-82
2022/08/10 13:23:49;;;;;;;18.25;9.88;;;;;;;;;;4400351;32;20241;-81
2022/08/10 13:26:19;;;;;;;11.70;8.95;;;;;;;;;;4401197;32;20229;-82
2022/08/10 13:28:50;;;;;;;18.42;7.40;;;;;;;;;;4401689;32;20766;-81
2022/08/10 13:31:40;;;;;;;10.40;7.45;;;;;;;;;;4400606;32;20214;-81
2022/08/10 13:34:14;;;;;;;18.48;7.22;;;;;;;;;;4401058;32;20304;-81
2022/08/10 13:36:41;;;;;;;9.18;6.15;;;;;;;;;;4402038;32;20637;-82
2022/08/10 13:39:09;;;;;;;12.90;7.30;;;;;;;;;;4401764;32;20247;-82
2022/08/10 13:41:39;;;;;;;11.27;6.65;;;;;;;;;;4401415;32;20444;-83
2022/08/10 13:44:06;;;;;;;11.52;7.57;;;;;;;;;;4401364;32;20748;-82
2022/08/10 13:46:32;;;;;;;12.37;7.60;;;;;;;;;;4401427;32;20571;-82
2022/08/10 13:49:02;;;;;;;15.63;8.13;;;;;;;;;;4399657;32;20241;-81
2022/08/10 13:51:33;;;;;;;13.25;9.73;;;;;;;;;;4400740;32;20229;-85
2022/08/10 13:54:00;;;;;;;11.12;8.02;;;;;;;;;;4401072;32;20209;-81
2022/08/10 13:56:28;;;;;;;11.82;9.65;;;;;;;;;;4401131;32;20323;-82
2022/08/10 13:58:54;;;;;;;17.15;8.77;;;;;;;;;;4401542;32;20271;-82
2022/08/10 14:01:27;;;;;;;11.30;9.05;;;;;;;;;;4400921;32;20225;-81
2022/08/10 14:03:54;;;;;;;21.67;10.40;;;;;;;;;;4401002;32;20310;-90
2022/08/10 14:06:24;;;;;;;14.20;9.50;;;;;;;;;;4400901;32;20271;-87
2022/08/10 14:09:04;;;;;;;13.77;9.43;;;;;;;;;;4400578;32;20298;-84
2022/08/10 14:11:31;;;;;;;17.75;10.55;;;;;;;;;;4401171;32;20248;-84
2022/08/10 14:14:18;;;;;;;15.50;11.82;;;;;;;;;;4401157;32;20217;-84
2022/08/10 14:16:44;;;;;;;22.85;14.15;;;;;;;;;;4401062;32;20393;-84
2022/08/10 14:19:19;;;;;;;16.12;11.82;;;;;;;;;;4401107;32;20251;-84
2022/08/10 14:21:45;;;;;;;15.63;10.20;;;;;;;;;;4400960;32;20769;-84
2022/08/10 14:24:29;;;;;;;14.77;11.12;;;;;;;;;;4400707;32;20201;-91
2022/08/10 14:27:04;;;;;;;15.63;9.63;;;;;;;;;;4401323;32;20279;-86
2022/08/10 14:29:37;;;;;;;13.00;9.43;;;;;;;;;;4401483;32;20247;-89
2022/08/10 14:32:08;;;;;;;11.77;8.45;;;;;;;;;;4400897;32;20268;-89
2022/08/10 14:34:38;;;;;;;16.12;10.00;;;;;;;;;;4401172;32;20239;-86
2022/08/10 14:37:09;;;;;;;23.17;9.55;;;;;;;;;;4399660;32;20729;-84
2022/08/10 14:40:02;;;;;;;11.93;10.55;;;;;;;;;;4399578;32;20254;-85
2022/08/10 14:42:35;;;;;;;12.43;9.75;;;;;;;;;;4401728;32;20791;-86
2022/08/10 14:45:17;;;;;;;13.35;10.52;;;;;;;;;;4403152;32;20253;-87
2022/08/10 14:47:44;;;;;;;14.50;9.50;;;;;;;;;;4400761;32;20368;-84
2022/08/10 14:50:15;;;;;;;17.10;9.30;;;;;;;;;;4401212;32;20263;-85
2022/08/10 14:52:42;;;;;;;13.38;7.50;;;;;;;;;;4400952;32;20336;-85
2022/08/10 14:55:08;;;;;;;10.88;6.97;;;;;;;;;;4400916;32;20236;-85
2022/08/10 14:57:39;;;;;;;9.45;6.03;;;;;;;;;;4401426;32;20289;-84
2022/08/10 15:00:06;;;;;;;7.30;4.87;;;;;;;;;;4401291;32;20291;-84
2022/08/10 15:02:45;;;;;;;5.15;4.50;;;;;;;;;;4401372;32;20255;-85
2022/08/10 15:05:14;;;;;;;11.57;5.00;;;;;;;;;;4401088;32;20197;-84
2022/08/10 15:07:46;;;;;;;7.70;5.57;;;;;;;;;;4401207;32;20236;-86
2022/08/10 15:10:23;;;;;;;8.60;5.80;;;;;;;;;;4399755;32;20284;-84
2022/08/10 15:12:51;;;;;;;9.45;4.87;;;;;;;;;;4401387;32;20669;-90
2022/08/10 15:15:21;;;;;;;8.80;4.82;;;;;;;;;;4402068;32;20923;-89
2022/08/10 15:17:54;;;;;;;7.82;5.10;;;;;;;;;;4400372;32;20343;-85
2022/08/10 15:20:26;;;;;;;10.75;6.90;;;;;;;;;;4401257;32;20221;-86
2022/08/10 15:22:58;;;;;;;10.60;6.97;;;;;;;;;;4401341;32;20272;-82